createdAt,value
2023-02-01T00:02:43.731Z,2.16
2023-02-01T00:05:19.225Z,2.20
2023-02-01T00:07:52.467Z,2.25
2023-02-01T00:10:22.610Z,2.31
2023-02-01T00:12:52.745Z,2.27
2023-02-01T00:15:20.603Z,2.28
2023-02-01T00:17:47.352Z,2.32
2023-02-01T00:20:20.420Z,2.51
2023-02-01T00:22:55.992Z,2.39
2023-02-01T00:25:22.899Z,2.41
2023-02-01T00:27:52.643Z,2.55
2023-02-01T00:30:37.366Z,2.58
2023-02-01T00:33:04.232Z,2.68
2023-02-01T00:36:00.441Z,2.60
2023-02-01T00:38:46.187Z,2.60
2023-02-01T00:41:25.273Z,2.64
2023-02-01T00:43:53.712Z,2.66
2023-02-01T00:46:53.331Z,2.70
2023-02-01T00:49:23.098Z,2.73
2023-02-01T00:51:56.460Z,2.77
2023-02-01T00:54:26.422Z,2.82
2023-02-01T00:56:55.421Z,2.90
2023-02-01T00:59:24.739Z,3.12
2023-02-01T01:01:51.534Z,3.13
2023-02-01T01:04:18.475Z,3.22
2023-02-01T01:06:45.237Z,3.24
2023-02-01T01:09:18.122Z,3.11
2023-02-01T01:11:58.126Z,3.16
2023-02-01T01:14:27.370Z,3.12
2023-02-01T01:16:54.266Z,2.90
2023-02-01T01:19:26.823Z,2.81
2023-02-01T01:21:56.161Z,2.87
2023-02-01T01:24:25.299Z,2.80
2023-02-01T01:27:01.149Z,2.96
2023-02-01T01:29:27.960Z,3.11
2023-02-01T01:31:54.758Z,3.19
2023-02-01T01:34:50.504Z,3.13
2023-02-01T01:37:23.393Z,3.01
2023-02-01T01:39:53.307Z,3.01
2023-02-01T01:42:28.904Z,3.15
2023-02-01T01:45:08.535Z,3.12
2023-02-01T01:47:50.664Z,3.22
2023-02-01T01:51:12.195Z,3.41
2023-02-01T01:54:03.185Z,3.36
2023-02-01T01:56:50.169Z,3.39
2023-02-01T01:59:54.857Z,3.37
2023-02-01T02:02:22.363Z,3.29
2023-02-01T02:04:53.286Z,3.40
2023-02-01T02:08:03.466Z,3.48
2023-02-01T02:11:04.479Z,3.62
2023-02-01T02:13:44.466Z,3.60
2023-02-01T02:16:29.766Z,3.66
2023-02-01T02:19:06.529Z,3.62
2023-02-01T02:23:03.811Z,3.60
2023-02-01T02:26:30.462Z,3.68
2023-02-01T02:30:10.580Z,3.53
2023-02-01T02:33:23.847Z,3.51
2023-02-01T02:36:20.390Z,3.62
2023-02-01T02:39:44.921Z,3.64
2023-02-01T02:43:19.062Z,3.65
2023-02-01T02:46:52.033Z,3.65
2023-02-01T02:54:14.750Z,3.68
2023-02-01T02:57:02.611Z,3.66
2023-02-01T02:59:52.309Z,3.76
2023-02-01T03:03:07.638Z,3.78
2023-02-01T03:05:46.744Z,3.74
2023-02-01T03:08:30.378Z,3.74
2023-02-01T03:11:16.971Z,3.74
2023-02-01T03:14:07.319Z,3.74
2023-02-01T03:17:16.717Z,3.75
2023-02-01T03:19:54.565Z,3.76
2023-02-01T03:22:44.400Z,3.70
2023-02-01T03:25:35.341Z,3.60
2023-02-01T03:28:12.333Z,3.66
2023-02-01T03:30:46.948Z,3.72
2023-02-01T03:33:27.836Z,3.69
2023-02-01T03:36:32.315Z,3.63
2023-02-01T03:39:35.869Z,3.66
2023-02-01T03:45:54.644Z,3.74
2023-02-01T03:48:38.316Z,3.70
2023-02-01T03:51:13.514Z,3.69
2023-02-01T03:53:50.381Z,3.73
2023-02-01T03:56:27.789Z,3.77
2023-02-01T03:59:06.327Z,3.83
2023-02-01T04:01:46.738Z,3.88
2023-02-01T04:04:23.715Z,3.90
2023-02-01T04:06:55.984Z,3.73
2023-02-01T04:09:28.289Z,3.55
2023-02-01T04:11:55.129Z,3.43
2023-02-01T04:14:24.961Z,3.22
2023-02-01T04:16:51.871Z,3.13
2023-02-01T04:19:24.695Z,3.05
2023-02-01T04:21:51.651Z,2.88
2023-02-01T04:24:27.789Z,2.76
2023-02-01T04:26:54.521Z,2.70
2023-02-01T04:29:27.528Z,2.57
2023-02-01T04:31:57.225Z,2.47
2023-02-01T04:34:25.795Z,2.43
2023-02-01T04:36:58.789Z,2.44
2023-02-01T04:39:28.282Z,2.46
2023-02-01T04:41:55.208Z,2.45
2023-02-01T04:44:25.641Z,2.45
2023-02-01T04:46:52.889Z,2.48
2023-02-01T04:49:27.822Z,2.43
2023-02-01T04:51:54.708Z,2.48
2023-02-01T04:54:24.672Z,2.42
2023-02-01T04:56:54.647Z,2.43
2023-02-01T04:59:26.912Z,2.40
2023-02-01T05:01:53.673Z,2.39
2023-02-01T05:04:29.499Z,2.41
2023-02-01T05:06:56.297Z,2.45
2023-02-01T05:09:31.450Z,2.39
2023-02-01T05:15:09.925Z,2.33
2023-02-01T05:20:20.629Z,2.46
2023-02-01T05:22:53.435Z,2.48
2023-02-01T05:25:23.628Z,2.53
2023-02-01T05:27:57.921Z,2.51
2023-02-01T05:30:30.089Z,2.43
2023-02-01T05:33:05.924Z,2.42
2023-02-01T05:35:35.350Z,2.30
2023-02-01T05:38:02.004Z,2.38
2023-02-01T05:40:28.894Z,2.40
2023-02-01T05:42:58.742Z,2.52
2023-02-01T05:45:28.526Z,2.55
2023-02-01T05:47:55.266Z,2.62
2023-02-01T05:50:29.225Z,2.71
2023-02-01T05:52:58.278Z,2.74
2023-02-01T05:55:28.188Z,2.75
2023-02-01T05:57:57.537Z,2.71
2023-02-01T06:00:27.839Z,2.86
2023-02-01T08:12:19.144Z,3.71
2023-02-01T09:29:18.981Z,5.69
2023-02-01T09:31:57.342Z,5.82
2023-02-01T09:35:03.539Z,5.79
2023-02-01T09:37:31.298Z,5.38
2023-02-01T09:40:00.619Z,5.03
2023-02-01T09:43:14.035Z,5.16
2023-02-01T09:45:59.344Z,5.04
2023-02-01T09:48:54.506Z,5.16
2023-02-01T09:51:32.354Z,5.19
2023-02-01T09:54:20.733Z,5.12
2023-02-01T09:57:09.419Z,5.32
2023-02-01T10:00:19.295Z,5.18
2023-02-01T10:02:46.816Z,5.00
2023-02-01T10:05:58.485Z,5.14
2023-02-01T10:09:17.379Z,5.17
2023-02-01T10:13:00.364Z,5.10
2023-02-01T10:16:30.596Z,5.07
2023-02-01T10:19:54.282Z,4.79
2023-02-01T10:23:15.929Z,4.62
2023-02-01T10:26:03.468Z,4.56
2023-02-01T10:28:52.798Z,4.56
2023-02-01T10:31:33.027Z,4.75
2023-02-01T11:55:53.871Z,4.79
2023-02-01T11:59:17.589Z,5.01
2023-02-01T12:02:36.960Z,5.21
2023-02-01T12:05:26.120Z,5.27
2023-02-01T12:08:28.373Z,5.16
2023-02-01T12:11:24.284Z,5.13
2023-02-01T12:14:35.721Z,4.81
2023-02-01T12:17:45.451Z,4.63
2023-02-01T12:21:06.135Z,4.38
2023-02-01T12:24:23.468Z,4.19
2023-02-01T12:27:36.519Z,4.07
2023-02-01T12:30:46.823Z,3.84
2023-02-01T12:34:37.827Z,3.72
2023-02-01T12:38:17.698Z,3.68
2023-02-01T12:41:50.583Z,3.71
2023-02-01T12:46:02.603Z,3.70
2023-02-01T12:48:58.289Z,3.70
2023-02-01T12:52:14.941Z,3.67
2023-02-01T12:55:25.506Z,3.73
2023-02-01T12:58:13.957Z,3.80
2023-02-01T13:01:13.465Z,3.83
2023-02-01T13:04:22.323Z,3.90
2023-02-01T13:07:05.675Z,4.05
2023-02-01T13:10:00.977Z,4.19
2023-02-01T13:12:50.230Z,4.32
2023-02-01T13:15:26.796Z,4.43
2023-02-01T13:17:59.850Z,4.45
2023-02-01T13:20:45.209Z,4.49
2023-02-01T13:23:55.169Z,4.36
2023-02-01T13:26:22.080Z,4.31
2023-02-01T13:29:12.107Z,4.35
2023-02-01T13:32:11.841Z,3.82
2023-02-01T13:35:46.720Z,2.35
2023-02-01T13:39:14.313Z,1.55
2023-02-01T13:42:17.052Z,1.44
2023-02-01T13:45:18.829Z,1.49
2023-02-01T13:48:27.969Z,1.66
2023-02-01T13:51:02.894Z,1.80
2023-02-01T13:53:51.518Z,1.98
2023-02-01T13:56:56.683Z,2.15
2023-02-01T13:59:44.921Z,2.41
2023-02-01T14:03:11.107Z,2.58
2023-02-01T14:05:53.265Z,2.77
2023-02-01T14:09:15.071Z,2.85
2023-02-01T14:12:02.487Z,2.98
2023-02-01T14:14:34.672Z,3.06
2023-02-01T14:40:26.348Z,3.46
2023-02-01T14:43:09.912Z,3.60
2023-02-01T14:45:56.545Z,3.76
2023-02-01T14:49:06.986Z,3.86
2023-02-01T14:51:34.173Z,3.84
2023-02-01T14:54:04.335Z,3.74
2023-02-01T15:02:58.426Z,3.64
2023-02-01T15:08:34.878Z,3.55
2023-02-01T15:11:18.691Z,3.53
2023-02-01T15:14:01.638Z,3.46
2023-02-01T15:16:28.713Z,3.49
2023-02-01T15:19:15.681Z,3.45
2023-02-01T15:21:57.703Z,3.44
2023-02-01T15:27:12.796Z,3.48
2023-02-01T15:29:59.220Z,3.48
2023-02-01T15:32:43.949Z,3.46
2023-02-01T15:35:53.431Z,3.50
2023-02-01T15:38:25.985Z,3.57
2023-02-01T15:41:21.684Z,3.57
2023-02-01T15:43:58.509Z,3.57
2023-02-01T15:47:08.800Z,3.55
2023-02-01T15:50:07.304Z,3.53
2023-02-01T15:53:00.537Z,3.47
2023-02-01T15:55:53.214Z,3.48
2023-02-01T15:58:30.479Z,3.43
2023-02-01T16:01:17.430Z,3.44
2023-02-01T16:04:26.803Z,3.40
2023-02-01T16:07:02.729Z,3.36
2023-02-01T16:10:28.165Z,3.24
2023-02-01T16:13:01.298Z,3.39
2023-02-01T16:15:30.736Z,3.54
2023-02-01T16:18:01.835Z,3.64
2023-02-01T16:20:28.718Z,3.79
2023-02-01T16:22:58.316Z,3.75
2023-02-01T16:25:32.341Z,3.79
2023-02-01T16:27:59.072Z,3.96
2023-02-01T16:30:26.517Z,3.96
2023-02-01T16:32:59.802Z,3.86
2023-02-01T16:35:55.176Z,3.82
2023-02-01T16:38:30.306Z,3.73
2023-02-01T16:41:02.530Z,3.54
2023-02-01T16:43:29.609Z,3.52
2023-02-01T16:46:22.203Z,3.34
2023-02-01T16:49:23.393Z,3.20
2023-02-01T16:52:07.423Z,3.14
2023-02-01T16:55:04.973Z,3.03
2023-02-01T16:57:33.642Z,3.02
2023-02-01T17:00:14.633Z,3.09
2023-02-01T17:03:16.494Z,3.14
2023-02-01T17:09:33.907Z,3.34
2023-02-01T17:12:00.601Z,3.30
2023-02-01T17:14:38.474Z,3.42
2023-02-01T17:17:06.120Z,3.50
2023-02-01T17:19:55.364Z,3.56
2023-02-01T17:22:22.243Z,3.69
2023-02-01T17:24:58.429Z,3.62
2023-02-01T17:27:34.036Z,3.67
2023-02-01T17:30:07.557Z,3.77
2023-02-01T17:32:34.414Z,3.72
2023-02-01T17:35:03.726Z,3.66
2023-02-01T17:40:29.969Z,3.59
2023-02-01T17:42:59.703Z,3.58
2023-02-01T17:46:04.003Z,3.73
2023-02-01T17:48:30.901Z,3.76
2023-02-01T17:51:04.753Z,3.61
2023-02-01T17:54:15.390Z,3.55
2023-02-01T17:56:56.015Z,3.46
2023-02-01T17:59:22.679Z,3.39
2023-02-01T18:02:03.767Z,3.59
2023-02-01T18:04:30.472Z,3.53
2023-02-01T18:07:01.537Z,3.41
2023-02-01T18:09:30.810Z,3.36
2023-02-01T18:11:58.640Z,3.37
2023-02-01T18:14:27.766Z,3.52
2023-02-01T18:16:57.451Z,3.64
2023-02-01T18:19:32.727Z,3.76
2023-02-01T18:22:06.244Z,3.77
2023-02-01T18:24:37.510Z,3.77
2023-02-01T18:27:07.491Z,3.77
2023-02-01T19:31:08.952Z,3.44
2023-02-01T19:56:01.671Z,3.90
2023-02-01T20:28:25.356Z,4.00
2023-02-01T20:30:52.140Z,4.05
2023-02-01T20:33:21.546Z,4.06
2023-02-01T20:35:52.610Z,4.06
2023-02-01T20:38:23.444Z,4.08
2023-02-01T20:40:57.479Z,4.11
2023-02-01T20:43:27.041Z,4.10
2023-02-01T20:45:56.937Z,4.20
2023-02-01T20:48:23.679Z,4.27
2023-02-01T20:50:59.098Z,4.37
2023-02-01T20:53:32.739Z,4.41
2023-02-01T20:56:07.174Z,4.43
2023-02-01T20:58:34.474Z,4.51
2023-02-01T21:01:01.615Z,4.59
2023-02-01T21:03:29.444Z,4.56
2023-02-01T21:06:01.645Z,4.60
2023-02-01T21:08:31.722Z,4.66
2023-02-01T21:11:13.635Z,4.71
2023-02-01T21:14:03.539Z,4.68
2023-02-01T21:16:30.297Z,4.77
2023-02-01T21:19:02.896Z,4.85
2023-02-01T21:21:36.566Z,4.83
2023-02-01T21:24:06.261Z,4.78
2023-02-01T21:29:32.052Z,4.73
2023-02-01T21:32:02.303Z,4.76
2023-02-01T21:34:30.528Z,4.82
2023-02-01T21:37:00.130Z,4.78
2023-02-01T21:39:30.308Z,4.76
2023-02-01T21:42:14.847Z,4.74
2023-02-01T21:45:01.769Z,4.70
2023-02-01T21:47:31.167Z,4.71
2023-02-01T21:50:18.005Z,4.75
2023-02-01T21:52:46.169Z,4.75
2023-02-01T21:55:14.786Z,4.74
2023-02-01T21:57:45.394Z,4.78
2023-02-01T22:00:14.182Z,4.82
2023-02-01T22:05:33.158Z,4.68
2023-02-01T22:07:59.805Z,4.64
2023-02-01T22:10:26.627Z,4.57
2023-02-01T22:12:53.495Z,4.66
2023-02-01T22:15:20.261Z,4.74
2023-02-01T22:17:53.237Z,4.74
2023-02-01T22:20:20.008Z,4.82
2023-02-01T22:22:58.068Z,4.73
2023-02-01T22:25:31.374Z,4.75
2023-02-01T22:28:31.664Z,4.73
2023-02-01T22:30:45.085Z,4.84
2023-02-01T22:33:13.165Z,4.86
2023-02-01T22:35:47.150Z,4.91
2023-02-01T22:38:13.995Z,4.91
2023-02-01T22:40:44.391Z,4.95
2023-02-01T22:43:12.060Z,4.90
2023-02-01T22:45:39.019Z,5.05
2023-02-01T22:48:11.355Z,4.99
2023-02-01T22:50:39.111Z,4.97
2023-02-01T22:53:07.312Z,4.98
2023-02-01T22:55:36.410Z,5.13
2023-02-01T22:58:06.181Z,4.97
2023-02-01T23:00:32.815Z,4.99
2023-02-01T23:03:01.325Z,5.00
2023-02-01T23:05:31.112Z,5.06
2023-02-01T23:08:01.468Z,5.00
2023-02-01T23:10:28.507Z,4.98
2023-02-01T23:12:58.417Z,5.01
2023-02-01T23:15:25.458Z,5.13
2023-02-01T23:17:58.945Z,5.11
2023-02-01T23:20:29.388Z,5.08
2023-02-01T23:22:59.011Z,5.08
2023-02-01T23:25:26.108Z,5.07
2023-02-01T23:27:59.319Z,4.90
2023-02-01T23:30:26.036Z,4.87
2023-02-01T23:33:01.945Z,4.89
2023-02-01T23:35:36.058Z,4.89
2023-02-01T23:38:02.912Z,4.99
2023-02-01T23:40:29.790Z,4.93
2023-02-01T23:43:20.614Z,4.98
2023-02-01T23:45:59.954Z,5.01
2023-02-01T23:48:31.532Z,4.88
2023-02-01T23:51:01.034Z,4.82
2023-02-01T23:53:30.498Z,4.76
2023-02-01T23:55:58.023Z,4.74
2023-02-01T23:58:30.396Z,4.63
